createdAt,value
2022-09-05T00:00:05.565Z,0.00
2022-09-05T00:01:05.548Z,0.00
2022-09-05T00:02:05.522Z,0.00
2022-09-05T00:03:05.671Z,0.00
2022-09-05T00:04:14.945Z,0.00
2022-09-05T00:05:05.506Z,0.00
2022-09-05T00:06:05.500Z,0.00
2022-09-05T00:07:05.487Z,0.00
2022-09-05T00:08:05.465Z,0.00
2022-09-05T00:09:05.469Z,0.00
2022-09-05T00:10:05.801Z,0.00
2022-09-05T00:11:41.628Z,0.00
2022-09-05T00:12:05.430Z,0.00
2022-09-05T00:13:07.571Z,0.00
2022-09-05T00:14:05.395Z,0.00
2022-09-05T00:15:14.757Z,0.00
2022-09-05T00:16:05.494Z,0.00
2022-09-05T00:17:05.357Z,0.00
2022-09-05T00:23:33.293Z,0.00
2022-09-05T00:25:39.482Z,0.00
2022-09-05T00:26:38.795Z,0.00
2022-09-05T00:27:38.820Z,0.00
2022-09-05T00:28:38.761Z,0.00
2022-09-05T00:31:08.159Z,0.00
2022-09-05T00:31:57.547Z,0.00
2022-09-05T00:32:02.589Z,0.00
2022-09-05T00:33:02.506Z,0.00
2022-09-05T00:34:02.538Z,0.00
2022-09-05T00:35:02.490Z,0.00
2022-09-05T00:36:02.473Z,0.00
2022-09-05T00:37:02.506Z,0.00
2022-09-05T00:38:02.456Z,0.00
2022-09-05T00:39:02.441Z,0.00
2022-09-05T00:40:17.238Z,0.00
2022-09-05T00:41:02.422Z,0.00
2022-09-05T00:42:02.412Z,0.00
2022-09-05T00:43:02.429Z,0.00
2022-09-05T00:44:02.396Z,0.00
2022-09-05T00:45:02.372Z,0.00
2022-09-05T00:46:02.412Z,0.00
2022-09-05T00:47:02.352Z,0.00
2022-09-05T00:48:02.381Z,0.00
2022-09-05T00:49:02.329Z,0.00
2022-09-05T00:50:02.327Z,0.00
2022-09-05T00:51:02.315Z,0.00
2022-09-05T00:52:02.307Z,0.00
2022-09-05T00:53:07.633Z,0.00
2022-09-05T00:54:02.292Z,0.00
2022-09-05T00:55:02.276Z,0.00
2022-09-05T00:56:02.260Z,0.00
2022-09-05T00:57:02.244Z,0.00
2022-09-05T00:58:02.256Z,0.00
2022-09-05T00:59:02.244Z,0.00
2022-09-05T01:00:02.215Z,0.00
2022-09-05T01:01:02.190Z,0.00
2022-09-05T01:02:02.328Z,0.00
2022-09-05T01:03:02.355Z,0.00
2022-09-05T01:04:05.720Z,0.00
2022-09-05T01:05:02.165Z,0.00
2022-09-05T01:06:02.179Z,0.00
2022-09-05T01:07:02.147Z,0.00
2022-09-05T01:08:02.140Z,0.00
2022-09-05T01:09:07.335Z,0.00
2022-09-05T01:10:02.116Z,0.00
2022-09-05T01:11:02.092Z,0.00
2022-09-05T01:12:02.082Z,0.00
2022-09-05T01:13:02.116Z,0.00
2022-09-05T01:14:02.076Z,0.00
2022-09-05T01:15:02.050Z,0.00
2022-09-05T01:16:02.197Z,0.00
2022-09-05T01:17:02.045Z,0.00
2022-09-05T01:18:02.033Z,0.00
2022-09-05T01:19:02.023Z,0.00
2022-09-05T01:20:04.682Z,0.00
2022-09-05T01:21:01.991Z,0.00
2022-09-05T01:22:01.972Z,0.00
2022-09-05T01:23:06.491Z,0.00
2022-09-05T01:24:01.956Z,0.00
2022-09-05T01:25:01.949Z,0.00
2022-09-05T01:26:01.924Z,0.00
2022-09-05T01:27:01.917Z,0.00
2022-09-05T01:29:13.887Z,0.00
2022-09-05T01:29:23.458Z,0.00
2022-09-05T01:30:01.880Z,0.00
2022-09-05T01:31:01.943Z,0.00
2022-09-05T01:32:01.875Z,0.00
2022-09-05T01:33:05.928Z,0.00
2022-09-05T01:34:01.856Z,0.00
2022-09-05T01:35:01.828Z,0.00
2022-09-05T01:36:04.002Z,0.00
2022-09-05T01:37:01.814Z,0.00
2022-09-05T01:38:01.825Z,0.00
2022-09-05T01:40:12.458Z,0.00
2022-09-05T01:40:20.964Z,0.00
2022-09-05T01:41:17.728Z,0.00
2022-09-05T01:42:01.761Z,0.00
2022-09-05T01:43:01.755Z,0.00
2022-09-05T01:44:01.739Z,0.00
2022-09-05T01:45:01.703Z,0.00
2022-09-05T01:46:01.734Z,0.00
2022-09-05T01:47:01.710Z,0.00
2022-09-05T01:48:01.702Z,0.00
2022-09-05T01:49:01.662Z,0.00
2022-09-05T01:50:01.666Z,0.00
2022-09-05T01:51:01.647Z,0.00
2022-09-05T01:52:01.639Z,0.00
2022-09-05T01:53:02.348Z,0.00
2022-09-05T01:54:01.628Z,0.00
2022-09-05T01:55:01.607Z,0.00
2022-09-05T01:56:04.388Z,0.00
2022-09-05T01:57:01.593Z,0.00
2022-09-05T01:58:01.625Z,0.00
2022-09-05T01:59:01.570Z,0.00
2022-09-05T02:00:01.635Z,0.00
2022-09-05T02:01:27.010Z,0.00
2022-09-05T02:02:01.685Z,0.00
2022-09-05T02:03:01.616Z,0.00
2022-09-05T02:04:04.555Z,0.00
2022-09-05T02:05:01.509Z,0.00
2022-09-05T02:06:01.623Z,0.00
2022-09-05T02:07:29.796Z,0.00
2022-09-05T02:08:01.688Z,0.00
2022-09-05T02:09:01.447Z,0.00
2022-09-05T02:10:07.042Z,0.00
2022-09-05T02:11:01.442Z,0.00
2022-09-05T02:12:01.423Z,0.00
2022-09-05T02:13:02.975Z,0.00
2022-09-05T02:14:01.399Z,0.00
2022-09-05T02:15:01.405Z,0.00
2022-09-05T02:16:01.488Z,0.00
2022-09-05T02:17:01.368Z,0.00
2022-09-05T02:18:01.374Z,0.00
2022-09-05T02:19:01.499Z,0.00
2022-09-05T02:20:01.338Z,0.00
2022-09-05T02:21:01.332Z,0.00
2022-09-05T02:22:01.337Z,0.00
2022-09-05T02:23:01.320Z,0.00
2022-09-05T02:24:01.288Z,0.00
2022-09-05T02:25:30.469Z,0.00
2022-09-05T02:26:06.764Z,0.00
2022-09-05T02:27:01.250Z,0.00
2022-09-05T02:28:05.429Z,0.00
2022-09-05T02:29:01.233Z,0.00
2022-09-05T02:30:01.222Z,0.00
2022-09-05T02:31:19.849Z,0.00
2022-09-05T02:32:01.231Z,0.00
2022-09-05T02:33:01.219Z,0.00
2022-09-05T02:34:02.043Z,0.00
2022-09-05T02:35:01.179Z,0.00
2022-09-05T02:36:01.171Z,0.00
2022-09-05T02:37:01.172Z,0.00
2022-09-05T02:38:58.064Z,0.00
2022-09-05T02:45:09.514Z,0.00
2022-09-05T02:45:28.711Z,0.00
2022-09-05T02:45:34.095Z,0.00
2022-09-05T02:46:33.823Z,0.00
2022-09-05T02:47:33.710Z,0.00
2022-09-05T02:48:33.704Z,0.00
2022-09-05T02:51:59.817Z,0.00
2022-09-05T02:58:06.605Z,0.00
2022-09-05T02:58:12.980Z,0.00
2022-09-05T02:59:09.779Z,0.00
2022-09-05T02:59:58.110Z,0.00
2022-09-05T03:00:58.114Z,0.00
2022-09-05T03:01:58.107Z,0.00
2022-09-05T03:02:58.194Z,0.00
2022-09-05T03:03:58.073Z,0.00
2022-09-05T03:05:04.893Z,0.00
2022-09-05T03:05:58.070Z,0.00
2022-09-05T03:06:58.047Z,0.00
2022-09-05T03:07:58.042Z,0.00
2022-09-05T03:08:58.002Z,0.00
2022-09-05T03:09:58.004Z,0.00
2022-09-05T03:10:57.987Z,0.00
2022-09-05T03:11:57.980Z,0.00
2022-09-05T03:12:57.986Z,0.00
2022-09-05T03:13:57.947Z,0.00
2022-09-05T03:14:57.949Z,0.00
2022-09-05T03:16:01.315Z,0.00
2022-09-05T03:16:58.020Z,0.00
2022-09-05T03:17:57.938Z,0.00
2022-09-05T03:18:57.901Z,0.00
2022-09-05T03:19:57.889Z,0.00
2022-09-05T03:21:09.205Z,0.00
2022-09-05T03:21:57.880Z,0.00
2022-09-05T03:22:57.863Z,0.00
2022-09-05T03:23:57.861Z,0.00
2022-09-05T03:24:57.822Z,0.00
2022-09-05T03:25:57.832Z,0.00
2022-09-05T03:26:57.799Z,0.00
2022-09-05T03:27:57.813Z,0.00
2022-09-05T03:28:57.780Z,0.00
2022-09-05T03:29:58.426Z,0.00
2022-09-05T03:30:57.808Z,0.00
2022-09-05T03:31:57.745Z,0.00
2022-09-05T03:32:57.747Z,0.00
2022-09-05T03:33:57.727Z,0.00
2022-09-05T03:34:57.709Z,0.00
2022-09-05T03:35:57.717Z,0.00
2022-09-05T03:36:57.685Z,0.00
2022-09-05T03:37:58.723Z,0.00
2022-09-05T03:38:57.655Z,0.00
2022-09-05T03:39:57.729Z,0.00
2022-09-05T03:40:57.655Z,0.00
2022-09-05T03:41:57.645Z,0.00
2022-09-05T03:42:57.630Z,0.00
2022-09-05T03:43:57.604Z,0.00
2022-09-05T03:44:57.593Z,0.00
2022-09-05T03:45:57.630Z,0.00
2022-09-05T03:46:57.565Z,0.00
2022-09-05T03:48:01.992Z,0.00
2022-09-05T03:48:58.049Z,0.00
2022-09-05T03:54:02.899Z,0.00
2022-09-05T03:57:32.250Z,0.00
2022-09-05T03:57:42.971Z,0.00
2022-09-05T03:58:41.928Z,0.00
2022-09-05T03:59:24.342Z,0.00
2022-09-05T04:00:24.329Z,0.00
2022-09-05T04:02:40.338Z,0.00
2022-09-05T04:08:15.120Z,0.00
2022-09-05T04:08:42.816Z,0.00
2022-09-05T04:08:48.382Z,0.00
2022-09-05T04:09:51.723Z,4.00
2022-09-05T04:10:47.388Z,0.00
2022-09-05T04:11:47.213Z,4.00
2022-09-05T04:12:47.211Z,4.00
2022-09-05T04:13:47.195Z,8.00
2022-09-05T04:14:47.194Z,4.00
2022-09-05T04:15:47.169Z,8.00
2022-09-05T04:16:47.189Z,8.00
2022-09-05T04:17:47.143Z,8.00
2022-09-05T04:18:47.138Z,12.00
2022-09-05T04:19:49.817Z,12.00
2022-09-05T04:20:47.119Z,16.00
2022-09-05T04:21:47.120Z,16.00
2022-09-05T04:22:47.086Z,20.00
2022-09-05T04:23:47.072Z,24.00
2022-09-05T04:24:47.080Z,28.00
2022-09-05T04:25:47.064Z,32.00
2022-09-05T04:26:47.039Z,36.00
2022-09-05T04:27:47.035Z,44.00
2022-09-05T04:28:53.830Z,48.00
2022-09-05T04:29:47.026Z,52.00
2022-09-05T04:30:47.016Z,60.00
2022-09-05T04:31:48.488Z,68.00
2022-09-05T04:32:47.006Z,72.00
2022-09-05T04:33:46.973Z,80.00
2022-09-05T04:34:46.983Z,84.00
2022-09-05T04:35:46.957Z,88.00
2022-09-05T04:36:46.944Z,96.00
2022-09-05T04:37:47.847Z,104.00
2022-09-05T04:38:46.912Z,112.00
2022-09-05T04:39:47.006Z,120.00
2022-09-05T04:40:46.887Z,124.00
2022-09-05T04:41:46.873Z,132.00
2022-09-05T04:42:46.871Z,144.00
2022-09-05T04:43:46.877Z,156.00
2022-09-05T04:44:46.858Z,168.00
2022-09-05T04:45:53.508Z,184.00
2022-09-05T04:46:48.249Z,204.00
2022-09-05T04:47:46.806Z,224.00
2022-09-05T04:48:46.789Z,240.00
2022-09-05T04:49:46.797Z,264.00
2022-09-05T04:50:46.774Z,288.00
2022-09-05T04:51:46.756Z,312.00
2022-09-05T04:52:46.759Z,332.00
2022-09-05T04:53:46.742Z,356.00
2022-09-05T04:54:46.745Z,384.00
2022-09-05T04:55:50.624Z,408.00
2022-09-05T04:56:46.705Z,440.00
2022-09-05T04:57:46.698Z,472.00
2022-09-05T04:59:56.680Z,500.00
2022-09-05T05:06:38.254Z,716.00
2022-09-05T05:07:13.501Z,744.00
2022-09-05T05:08:13.539Z,772.00
2022-09-05T05:09:13.419Z,784.00
2022-09-05T05:10:13.402Z,796.00
2022-09-05T05:17:56.598Z,804.00
2022-09-05T05:18:37.719Z,816.00
2022-09-05T05:19:03.083Z,988.00
2022-09-05T05:19:31.637Z,1024.00
2022-09-05T05:20:43.056Z,1072.00
2022-09-05T05:21:31.550Z,1128.00
2022-09-05T05:22:31.550Z,1192.00
2022-09-05T05:23:31.523Z,1248.00
2022-09-05T05:24:31.510Z,1300.00
2022-09-05T05:25:31.491Z,1332.00
2022-09-05T05:26:31.489Z,1368.00
2022-09-05T05:27:31.475Z,1396.00
2022-09-05T05:28:31.471Z,1416.00
2022-09-05T05:29:31.448Z,1448.00
2022-09-05T05:30:31.429Z,1484.00
2022-09-05T05:31:31.437Z,1508.00
2022-09-05T05:32:45.792Z,1532.00
2022-09-05T05:33:31.425Z,1560.00
2022-09-05T05:34:31.395Z,1568.00
2022-09-05T05:35:31.382Z,1568.00
2022-09-05T05:36:31.367Z,1568.00
2022-09-05T05:37:31.363Z,1560.00
2022-09-05T05:38:31.354Z,1544.00
2022-09-05T05:39:31.393Z,1532.00
2022-09-05T05:40:31.691Z,1544.00
2022-09-05T05:41:31.313Z,1556.00
2022-09-05T05:42:31.298Z,1552.00
2022-09-05T05:43:31.307Z,1548.00
2022-09-05T05:44:31.277Z,1548.00
2022-09-05T05:45:31.268Z,1552.00
2022-09-05T05:46:31.383Z,1552.00
2022-09-05T05:47:32.129Z,1560.00
2022-09-05T05:48:31.238Z,1564.00
2022-09-05T05:49:31.223Z,1560.00
2022-09-05T05:50:31.210Z,1544.00
2022-09-05T05:51:34.497Z,1524.00
2022-09-05T05:52:31.196Z,1508.00
2022-09-05T05:53:42.905Z,1496.00
2022-09-05T05:54:31.162Z,1484.00
2022-09-05T05:55:51.652Z,1476.00
2022-09-05T05:56:31.148Z,1480.00
2022-09-05T05:57:31.133Z,1512.00
2022-09-05T05:58:32.914Z,1572.00
2022-09-05T05:59:31.113Z,1652.00
2022-09-05T06:00:31.102Z,1752.00
2022-09-05T06:01:37.907Z,1844.00
2022-09-05T06:02:31.211Z,1928.00
2022-09-05T06:03:31.222Z,1992.00
2022-09-05T06:04:31.057Z,2032.00
2022-09-05T06:05:31.059Z,2072.00
2022-09-05T06:06:31.039Z,2140.00
2022-09-05T06:07:33.377Z,2232.00
2022-09-05T06:12:03.217Z,2332.00
2022-09-05T06:15:12.106Z,2416.00
2022-09-05T06:15:22.381Z,2684.00
2022-09-05T06:16:17.086Z,2712.00
2022-09-05T06:17:17.039Z,2740.00
2022-09-05T06:18:17.030Z,2768.00
2022-09-05T06:19:17.033Z,2800.00
2022-09-05T06:22:05.370Z,2820.00
2022-09-05T06:22:14.943Z,2820.00
2022-09-05T06:22:21.506Z,2796.00
2022-09-05T06:23:39.107Z,2772.00
2022-09-05T06:24:21.302Z,2752.00
2022-09-05T06:25:20.638Z,2724.00
2022-09-05T06:26:20.628Z,2668.00
2022-09-05T06:27:20.618Z,2612.00
2022-09-05T06:28:20.610Z,2556.00
2022-09-05T06:29:20.591Z,2504.00
2022-09-05T06:30:20.613Z,2424.00
2022-09-05T06:31:29.500Z,2324.00
2022-09-05T06:32:20.631Z,2208.00
2022-09-05T06:33:20.620Z,2120.00
2022-09-05T06:34:33.484Z,2040.00
2022-09-05T06:35:20.533Z,1984.00
2022-09-05T06:36:20.543Z,1952.00
2022-09-05T06:37:20.499Z,1916.00
2022-09-05T06:38:20.490Z,1872.00
2022-09-05T06:39:20.487Z,1832.00
2022-09-05T06:40:21.033Z,1788.00
2022-09-05T06:41:20.465Z,1724.00
2022-09-05T06:42:42.673Z,1656.00
2022-09-05T06:43:20.488Z,1604.00
2022-09-05T06:44:20.431Z,1568.00
2022-09-05T06:45:28.206Z,1532.00
2022-09-05T06:46:50.602Z,1512.00
2022-09-05T06:47:23.772Z,1508.00
2022-09-05T06:48:41.206Z,1524.00
2022-09-05T06:49:28.889Z,1552.00
2022-09-05T06:50:23.985Z,1600.00
2022-09-05T06:51:20.349Z,1672.00
2022-09-05T06:52:29.729Z,1752.00
2022-09-05T06:53:21.055Z,1836.00
2022-09-05T06:54:20.349Z,1908.00
2022-09-05T06:55:20.307Z,1980.00
2022-09-05T06:56:25.834Z,2048.00
2022-09-05T06:57:20.290Z,2120.00
2022-09-05T06:58:20.273Z,2196.00
2022-09-05T06:59:20.259Z,2276.00
2022-09-05T07:00:22.229Z,2348.00
2022-09-05T07:01:20.330Z,2412.00
2022-09-05T07:02:25.717Z,2400.00
2022-09-05T07:03:20.348Z,2372.00
2022-09-05T07:05:14.651Z,2372.00
2022-09-05T07:05:44.774Z,2392.00
2022-09-05T07:06:20.518Z,2428.00
2022-09-05T07:07:20.168Z,2476.00
2022-09-05T07:08:34.827Z,2536.00
2022-09-05T07:09:20.153Z,2612.00
2022-09-05T07:10:37.966Z,2688.00
2022-09-05T07:11:20.154Z,2752.00
2022-09-05T07:12:20.125Z,2812.00
2022-09-05T07:13:20.164Z,2844.00
2022-09-05T07:14:20.106Z,2904.00
2022-09-05T07:15:20.624Z,2988.00
2022-09-05T07:16:37.369Z,3084.00
2022-09-05T07:17:20.087Z,3200.00
2022-09-05T07:18:20.056Z,3324.00
2022-09-05T07:19:20.053Z,3408.00
2022-09-05T07:20:22.026Z,3504.00
2022-09-05T07:21:26.249Z,3612.00
2022-09-05T07:22:46.092Z,3728.00
2022-09-05T07:23:57.790Z,3844.00
2022-09-05T07:24:29.749Z,3968.00
2022-09-05T07:25:19.982Z,4120.00
2022-09-05T07:26:51.983Z,4240.00
2022-09-05T07:27:19.957Z,4292.00
2022-09-05T07:28:28.792Z,4320.00
2022-09-05T07:29:19.958Z,4340.00
2022-09-05T07:30:19.919Z,4316.00
2022-09-05T07:31:27.463Z,4248.00
2022-09-05T07:32:24.258Z,4168.00
2022-09-05T07:33:19.969Z,4096.00
2022-09-05T07:34:21.140Z,4124.00
2022-09-05T07:35:19.879Z,4164.00
2022-09-05T07:36:19.855Z,4248.00
2022-09-05T07:37:19.843Z,4296.00
2022-09-05T07:38:19.842Z,4268.00
2022-09-05T07:39:28.799Z,4252.00
2022-09-05T07:40:25.291Z,4320.00
2022-09-05T07:41:19.823Z,4380.00
2022-09-05T07:42:19.787Z,4412.00
2022-09-05T07:43:19.770Z,4448.00
2022-09-05T07:44:22.075Z,4460.00
2022-09-05T07:45:19.761Z,4420.00
2022-09-05T07:46:19.769Z,4476.00
2022-09-05T07:47:19.747Z,4556.00
2022-09-05T07:48:19.722Z,4476.00
2022-09-05T07:49:19.707Z,4492.00
2022-09-05T07:52:21.105Z,4508.00
2022-09-05T07:57:50.662Z,4392.00
2022-09-05T07:58:11.571Z,4356.00
2022-09-05T07:59:11.560Z,4300.00
2022-09-05T08:00:23.134Z,4240.00
2022-09-05T08:01:11.606Z,4176.00
2022-09-05T08:02:11.550Z,4164.00
2022-09-05T08:03:11.516Z,4216.00
2022-09-05T08:04:11.502Z,4284.00
2022-09-05T08:05:11.509Z,4404.00
2022-09-05T08:06:11.483Z,4524.00
2022-09-05T08:07:45.965Z,4640.00
2022-09-05T08:08:11.564Z,4744.00
2022-09-05T08:10:00.927Z,4844.00
2022-09-05T08:10:15.560Z,4960.00
2022-09-05T08:11:23.566Z,5048.00
2022-09-05T08:12:11.423Z,5120.00
2022-09-05T08:13:24.745Z,5144.00
2022-09-05T08:14:43.504Z,5128.00
2022-09-05T08:15:14.127Z,5064.00
2022-09-05T08:16:15.239Z,5028.00
2022-09-05T08:17:11.358Z,5248.00
2022-09-05T08:18:11.339Z,5212.00
2022-09-05T08:19:11.361Z,4904.00
2022-09-05T08:20:11.322Z,4880.00
2022-09-05T08:21:11.314Z,4924.00
2022-09-05T08:22:11.291Z,4896.00
2022-09-05T08:23:11.287Z,4916.00
2022-09-05T08:24:13.279Z,5228.00
2022-09-05T08:25:11.286Z,4736.00
2022-09-05T08:26:11.253Z,4680.00
2022-09-05T08:27:16.015Z,4636.00
2022-09-05T08:28:11.247Z,4572.00
2022-09-05T08:29:11.256Z,4568.00
2022-09-05T08:30:26.920Z,4648.00
2022-09-05T08:31:11.276Z,4812.00
2022-09-05T08:32:11.183Z,5008.00
2022-09-05T08:33:11.887Z,5208.00
2022-09-05T08:34:11.169Z,5408.00
2022-09-05T08:35:11.156Z,6120.00
2022-09-05T08:36:11.160Z,6004.00
2022-09-05T08:37:11.132Z,5736.00
2022-09-05T08:38:11.126Z,6256.00
2022-09-05T08:39:11.124Z,6092.00
2022-09-05T08:40:12.200Z,6016.00
2022-09-05T08:41:11.114Z,5624.00
2022-09-05T08:42:11.085Z,5312.00
2022-09-05T08:46:02.049Z,5304.00
2022-09-05T08:46:49.877Z,5476.00
2022-09-05T08:46:55.419Z,5780.00
2022-09-05T08:47:53.204Z,5704.00
2022-09-05T08:48:53.120Z,5588.00
2022-09-05T08:49:53.098Z,5512.00
2022-09-05T08:50:53.097Z,5284.00
2022-09-05T08:51:55.259Z,5124.00
2022-09-05T08:52:53.082Z,4996.00
2022-09-05T08:53:53.525Z,4864.00
2022-09-05T08:55:02.802Z,4788.00
2022-09-05T08:55:53.038Z,4744.00
2022-09-05T08:56:53.028Z,4656.00
2022-09-05T08:57:53.065Z,4568.00
2022-09-05T08:59:27.191Z,4432.00
2022-09-05T09:00:19.897Z,4352.00
2022-09-05T09:00:55.055Z,4288.00
2022-09-05T09:02:00.700Z,4268.00
2022-09-05T09:02:52.968Z,4396.00
2022-09-05T09:03:53.010Z,4324.00
2022-09-05T09:05:02.097Z,4436.00
2022-09-05T09:06:14.044Z,4564.00
2022-09-05T09:06:57.957Z,4612.00
2022-09-05T09:07:52.917Z,4632.00
2022-09-05T09:08:52.894Z,4472.00
2022-09-05T09:09:52.915Z,4340.00
2022-09-05T09:10:52.862Z,4128.00
2022-09-05T09:11:52.868Z,4048.00
2022-09-05T09:12:52.849Z,3780.00
2022-09-05T09:13:52.835Z,3652.00
2022-09-05T09:14:52.835Z,3536.00
2022-09-05T09:15:52.881Z,3488.00
2022-09-05T09:16:52.812Z,3452.00
2022-09-05T09:17:52.787Z,3436.00
2022-09-05T09:18:52.781Z,3464.00
2022-09-05T09:19:52.772Z,3496.00
2022-09-05T09:20:52.775Z,3568.00
2022-09-05T09:21:52.762Z,3596.00
2022-09-05T09:22:52.744Z,3652.00
2022-09-05T09:23:52.738Z,3664.00
2022-09-05T09:25:14.756Z,3700.00
2022-09-05T09:25:52.712Z,3720.00
2022-09-05T09:26:52.698Z,3704.00
2022-09-05T09:28:46.524Z,3676.00
2022-09-05T09:28:53.712Z,3584.00
2022-09-05T09:29:52.663Z,3488.00
2022-09-05T09:30:52.653Z,3416.00
2022-09-05T09:31:52.725Z,3348.00
2022-09-05T09:32:55.284Z,3336.00
2022-09-05T09:33:52.638Z,3336.00
2022-09-05T09:34:52.744Z,3320.00
2022-09-05T09:35:52.591Z,3284.00
2022-09-05T09:36:52.584Z,3300.00
2022-09-05T09:37:55.308Z,3328.00
2022-09-05T09:38:52.572Z,3260.00
2022-09-05T09:39:52.639Z,3056.00
2022-09-05T09:41:02.806Z,2896.00
2022-09-05T09:41:52.534Z,2780.00
2022-09-05T09:42:52.523Z,2676.00
2022-09-05T09:43:52.772Z,2588.00
2022-09-05T09:44:52.498Z,2556.00
2022-09-05T09:45:52.503Z,2512.00
2022-09-05T09:46:52.539Z,2432.00
2022-09-05T09:47:52.459Z,2360.00
2022-09-05T09:48:52.453Z,2328.00
2022-09-05T09:49:52.447Z,2308.00
2022-09-05T09:50:58.713Z,2300.00
2022-09-05T09:51:52.425Z,2308.00
2022-09-05T09:52:52.411Z,2360.00
2022-09-05T09:53:52.390Z,2416.00
2022-09-05T09:54:52.396Z,2508.00
2022-09-05T09:55:52.395Z,2600.00
2022-09-05T09:56:52.384Z,2720.00
2022-09-05T09:57:53.033Z,2856.00
2022-09-05T09:58:52.353Z,2992.00
2022-09-05T09:59:54.735Z,3120.00
2022-09-05T10:00:52.343Z,3272.00
2022-09-05T10:01:52.339Z,3396.00
2022-09-05T10:04:12.500Z,3444.00
2022-09-05T10:11:25.882Z,3516.00
2022-09-05T10:11:55.015Z,4224.00
2022-09-05T10:12:01.697Z,4344.00
2022-09-05T10:13:08.903Z,4492.00
2022-09-05T10:13:55.201Z,4616.00
2022-09-05T10:14:55.197Z,4768.00
2022-09-05T10:15:55.242Z,4928.00
2022-09-05T10:16:55.187Z,5048.00
2022-09-05T10:17:55.272Z,5124.00
2022-09-05T10:18:55.148Z,5176.00
2022-09-05T10:20:11.764Z,5192.00
2022-09-05T10:21:15.512Z,5232.00
2022-09-05T10:22:55.117Z,5596.00
2022-09-05T10:23:55.089Z,5956.00
2022-09-05T10:24:55.083Z,6324.00
2022-09-05T10:25:58.242Z,6736.00
2022-09-05T10:26:56.467Z,6936.00
2022-09-05T10:27:55.722Z,7064.00
2022-09-05T10:28:55.036Z,7056.00
2022-09-05T10:29:55.029Z,7020.00
2022-09-05T10:32:31.267Z,7016.00
2022-09-05T10:35:22.319Z,7104.00
2022-09-05T10:35:28.457Z,7492.00
2022-09-05T10:36:26.352Z,7620.00
2022-09-05T10:37:26.319Z,7572.00
2022-09-05T10:38:26.309Z,7556.00
2022-09-05T10:39:26.403Z,7332.00
2022-09-05T10:40:26.291Z,7268.00
2022-09-05T10:41:26.267Z,7220.00
2022-09-05T10:42:26.252Z,7248.00
2022-09-05T10:43:26.389Z,7292.00
2022-09-05T10:44:26.231Z,7388.00
2022-09-05T10:45:33.459Z,7420.00
2022-09-05T10:47:36.800Z,7092.00
2022-09-05T10:48:37.805Z,7032.00
2022-09-05T10:49:37.787Z,6924.00
2022-09-05T10:50:37.785Z,7032.00
2022-09-05T10:51:37.989Z,7296.00
2022-09-05T10:52:37.747Z,7548.00
2022-09-05T10:53:39.746Z,7676.00
2022-09-05T10:54:37.722Z,7756.00
2022-09-05T10:55:37.721Z,8028.00
2022-09-05T10:56:37.709Z,8520.00
2022-09-05T10:57:37.695Z,7924.00
2022-09-05T11:02:15.893Z,8384.00
2022-09-05T11:02:41.038Z,9128.00
2022-09-05T11:02:53.948Z,9320.00
2022-09-05T11:03:45.107Z,9564.00
2022-09-05T11:04:46.712Z,9212.00
2022-09-05T11:05:45.059Z,9964.00
2022-09-05T11:06:44.994Z,9924.00
2022-09-05T11:07:44.982Z,8368.00
2022-09-05T11:08:44.973Z,8028.00
2022-09-05T11:09:44.975Z,8536.00
2022-09-05T11:10:44.949Z,9276.00
2022-09-05T11:11:44.941Z,9548.00
2022-09-05T11:12:44.939Z,9312.00
2022-09-05T11:13:44.926Z,9244.00
2022-09-05T11:14:44.924Z,8800.00
2022-09-05T11:15:47.852Z,10048.00
2022-09-05T11:16:44.922Z,9580.00
2022-09-05T11:17:44.873Z,10052.00
2022-09-05T11:18:56.029Z,9888.00
2022-09-05T11:19:44.878Z,9620.00
2022-09-05T11:20:44.836Z,9460.00
2022-09-05T11:21:44.838Z,9340.00
2022-09-05T11:22:44.824Z,9056.00
2022-09-05T11:23:56.851Z,8976.00
2022-09-05T11:24:44.829Z,8800.00
2022-09-05T11:25:44.788Z,8340.00
2022-09-05T11:26:44.897Z,7592.00
2022-09-05T11:27:44.775Z,8480.00
2022-09-05T11:28:58.145Z,8312.00
2022-09-05T11:29:44.775Z,8504.00
2022-09-05T11:30:44.799Z,8660.00
2022-09-05T11:32:56.561Z,8740.00
2022-09-05T11:40:31.616Z,8704.00
2022-09-05T11:41:01.016Z,8800.00
2022-09-05T11:41:14.026Z,8780.00
2022-09-05T11:41:56.908Z,8768.00
2022-09-05T11:42:56.832Z,8972.00
2022-09-05T11:44:00.994Z,8968.00
2022-09-05T11:44:56.848Z,9472.00
2022-09-05T11:45:56.845Z,10076.00
2022-09-05T11:46:56.793Z,9840.00
2022-09-05T11:47:56.783Z,9956.00
2022-09-05T11:48:56.774Z,9948.00
2022-09-05T11:49:56.762Z,9624.00
2022-09-05T11:50:56.767Z,9544.00
2022-09-05T11:51:56.758Z,9684.00
2022-09-05T11:52:56.734Z,9620.00
2022-09-05T11:53:57.422Z,10196.00
2022-09-05T11:54:56.717Z,9712.00
2022-09-05T11:55:56.731Z,9740.00
2022-09-05T11:57:11.380Z,9456.00
2022-09-05T11:57:57.020Z,9396.00
2022-09-05T11:58:56.669Z,9244.00
2022-09-05T12:00:30.611Z,9108.00
2022-09-05T12:01:41.726Z,8940.00
2022-09-05T12:01:56.637Z,8632.00
2022-09-05T12:02:56.671Z,8428.00
2022-09-05T12:03:59.730Z,8236.00
2022-09-05T12:05:50.667Z,8028.00
2022-09-05T12:06:03.734Z,7792.00
2022-09-05T12:06:56.582Z,7680.00
2022-09-05T12:07:56.568Z,7800.00
2022-09-05T12:08:56.573Z,7764.00
2022-09-05T12:09:56.545Z,7264.00
2022-09-05T12:10:56.553Z,7396.00
2022-09-05T12:11:56.522Z,7236.00
2022-09-05T12:12:56.521Z,7132.00
2022-09-05T12:13:56.498Z,7064.00
2022-09-05T12:14:56.498Z,7196.00
2022-09-05T12:16:07.804Z,7020.00
2022-09-05T12:16:56.479Z,6992.00
2022-09-05T12:17:56.459Z,6980.00
2022-09-05T12:18:56.462Z,7164.00
2022-09-05T12:19:56.458Z,7172.00
2022-09-05T12:20:56.449Z,7132.00
2022-09-05T12:21:56.422Z,7136.00
2022-09-05T12:22:56.399Z,7484.00
2022-09-05T12:24:36.716Z,7684.00
2022-09-05T12:27:39.699Z,7768.00
2022-09-05T12:27:55.839Z,7992.00
2022-09-05T12:29:38.554Z,8008.00
2022-09-05T12:29:50.018Z,8460.00
2022-09-05T12:31:07.155Z,8504.00
2022-09-05T12:36:05.731Z,7756.00
2022-09-05T12:40:44.527Z,7572.00
2022-09-05T12:42:14.805Z,8360.00
2022-09-05T12:42:34.256Z,9968.00
2022-09-05T12:43:39.358Z,9772.00
2022-09-05T12:44:46.505Z,9692.00
2022-09-05T12:44:55.355Z,9756.00
2022-09-05T12:46:53.426Z,9912.00
2022-09-05T12:47:54.420Z,10096.00
2022-09-05T12:48:54.411Z,10488.00
2022-09-05T12:49:54.412Z,10392.00
2022-09-05T12:50:54.396Z,10156.00
2022-09-05T12:51:54.441Z,9916.00
2022-09-05T12:52:54.379Z,9536.00
2022-09-05T12:53:54.389Z,9168.00
2022-09-05T12:54:56.852Z,8912.00
2022-09-05T12:56:33.631Z,8804.00
2022-09-05T13:03:07.767Z,8768.00
2022-09-05T13:03:28.170Z,8400.00
2022-09-05T13:03:34.612Z,8476.00
2022-09-05T13:04:32.622Z,8560.00
2022-09-05T13:05:30.554Z,8492.00
2022-09-05T13:06:30.572Z,8540.00
2022-09-05T13:07:30.432Z,8312.00
2022-09-05T13:08:30.420Z,8080.00
2022-09-05T13:10:14.265Z,8136.00
2022-09-05T13:14:49.162Z,8252.00
2022-09-05T13:15:22.391Z,8324.00
2022-09-05T13:15:28.655Z,8468.00
2022-09-05T13:16:22.886Z,8544.00
2022-09-05T13:17:13.927Z,8576.00
2022-09-05T13:18:13.871Z,8924.00
2022-09-05T13:19:13.850Z,9188.00
2022-09-05T13:20:13.846Z,9424.00
2022-09-05T13:21:13.850Z,9664.00
2022-09-05T13:22:13.852Z,9700.00
2022-09-05T13:23:13.821Z,9372.00
2022-09-05T13:24:14.795Z,9292.00
2022-09-05T13:25:13.792Z,9416.00
2022-09-05T13:26:13.785Z,8856.00
2022-09-05T13:27:13.860Z,8484.00
2022-09-05T13:28:13.789Z,9100.00
2022-09-05T13:29:13.748Z,8232.00
2022-09-05T13:30:54.842Z,8024.00
2022-09-05T13:38:37.667Z,7840.00
2022-09-05T13:38:52.776Z,9628.00
2022-09-05T13:39:23.596Z,10184.00
2022-09-05T13:40:23.620Z,10340.00
2022-09-05T13:41:27.297Z,10828.00
2022-09-05T13:42:23.434Z,11428.00
2022-09-05T13:43:23.456Z,12400.00
2022-09-05T13:44:26.855Z,13336.00
2022-09-05T13:45:23.380Z,12592.00
2022-09-05T13:46:23.419Z,14072.00
2022-09-05T13:47:29.621Z,18112.00
2022-09-05T13:48:23.486Z,23872.00
2022-09-05T13:49:25.933Z,20064.00
2022-09-05T13:50:23.343Z,20608.00
2022-09-05T13:51:23.325Z,27040.00
2022-09-05T13:52:23.315Z,26656.00
2022-09-05T13:53:23.307Z,28224.00
2022-09-05T13:54:23.309Z,28800.00
2022-09-05T13:55:23.290Z,29248.00
2022-09-05T13:56:23.273Z,28096.00
2022-09-05T13:57:31.589Z,27168.00
2022-09-05T13:58:23.298Z,26464.00
2022-09-05T13:59:23.284Z,27616.00
2022-09-05T14:00:27.678Z,29760.00
2022-09-05T14:01:23.249Z,26528.00